Time;durP1;ratioP1;P1;durP2;ratioP2;P2;SDS_P1;SDS_P2;PMS_P1;PMS_P2;Temp;Humidity;BMP_temperature;BMP_pressure;BME280_temperature;BME280_humidity;BME280_pressure;Samples;Min_cycle;Max_cycle;Signal;HPM_P1;HPM_P2
2023/10/28 00:00:52;;;;;;;;;;;;;;;12.51;100.00;98231.34;4927992;29;19947;-75
2023/10/28 00:03:18;;;;;;;;;;;;;;;12.55;100.00;98227.28;4927799;29;20021;-74
2023/10/28 00:05:43;;;;;;;;;;;;;;;12.53;100.00;98221.41;4928359;29;20380;-74
2023/10/28 00:08:09;;;;;;;;;;;;;;;12.50;100.00;98213.81;4928648;29;19923;-75
2023/10/28 00:10:36;;;;;;;;;;;;;;;12.47;100.00;98223.97;4928844;29;19966;-74
2023/10/28 00:13:02;;;;;;;;;;;;;;;12.43;100.00;98228.78;4929408;29;20340;-75
2023/10/28 00:15:28;;;;;;;;;;;;;;;12.12;100.00;98226.41;4928524;29;19990;-75
2023/10/28 00:17:53;;;;;;;;;;;;;;;12.13;100.00;98235.16;4930532;29;19939;-75
2023/10/28 00:20:19;;;;;;;;;;;;;;;12.12;100.00;98233.53;4927694;29;19930;-75
2023/10/28 00:22:45;;;;;;;;;;;;;;;12.04;100.00;98228.31;4928080;29;19923;-74
2023/10/28 00:25:11;;;;;;;;;;;;;;;11.94;100.00;98227.78;4928355;29;20404;-74
2023/10/28 00:27:37;;;;;;;;;;;;;;;11.94;100.00;98228.63;4928291;29;20351;-74
2023/10/28 00:30:02;;;;;;;;;;;;;;;11.96;100.00;98231.09;4928762;29;20006;-74
2023/10/28 00:32:28;;;;;;;;;;;;;;;12.09;100.00;98239.16;4932779;29;19930;-74
2023/10/28 00:34:54;;;;;;;;;;;;;;;12.17;100.00;98239.06;4932138;29;19923;-74
2023/10/28 00:37:19;;;;;;;;;;;;;;;12.17;100.00;98239.06;4930236;29;19925;-74
2023/10/28 00:39:46;;;;;;;;;;;;;;;12.10;100.00;98246.09;4928574;29;19923;-75
2023/10/28 00:42:17;;;;;;;;;;;;;;;11.97;100.00;98251.22;4930367;29;19923;-74
2023/10/28 00:44:42;;;;;;;;;;;;;;;11.90;100.00;98254.59;4912497;29;20029;-75
2023/10/28 00:47:08;;;;;;;;;;;;;;;11.88;100.00;98256.59;4913874;29;19973;-75
2023/10/28 00:49:33;;;;;;;;;;;;;;;11.87;100.00;98251.50;4931823;29;19918;-75
2023/10/28 00:51:59;;;;;;;;;;;;;;;11.79;100.00;98255.03;4920925;29;20005;-74
2023/10/28 00:54:25;;;;;;;;;;;;;;;11.80;100.00;98269.91;4928475;29;19930;-75
2023/10/28 00:56:52;;;;;;;;;;;;;;;11.74;100.00;98278.56;4931867;29;19947;-74
2023/10/28 00:59:17;;;;;;;;;;;;;;;11.60;100.00;98287.28;4926485;29;19970;-74
2023/10/28 01:01:43;;;;;;;;;;;;;;;11.66;100.00;98283.09;4927404;29;19930;-75
2023/10/28 01:04:10;;;;;;;;;;;;;;;11.39;100.00;98287.13;4930426;29;19927;-74
2023/10/28 01:06:36;;;;;;;;;;;;;;;11.26;100.00;98284.25;4932018;29;20303;-73
2023/10/28 01:09:01;;;;;;;;;;;;;;;11.15;100.00;98287.31;4931659;29;19925;-73
2023/10/28 01:11:27;;;;;;;;;;;;;;;10.89;100.00;98290.31;4932690;29;19926;-74
2023/10/28 01:13:53;;;;;;;;;;;;;;;10.86;100.00;98277.47;4922753;29;19938;-74
2023/10/28 01:16:19;;;;;;;;;;;;;;;10.90;100.00;98282.22;4924604;29;19919;-74
2023/10/28 01:18:44;;;;;;;;;;;;;;;10.82;100.00;98263.00;4931105;29;19923;-74
2023/10/28 01:21:13;;;;;;;;;;;;;;;11.01;100.00;98273.09;4927629;29;20076;-74
2023/10/28 01:23:40;;;;;;;;;;;;;;;11.10;100.00;98282.56;4928608;29;20001;-75
2023/10/28 01:26:05;;;;;;;;;;;;;;;11.14;100.00;98283.03;4932330;29;19929;-74
2023/10/28 01:28:31;;;;;;;;;;;;;;;11.17;100.00;98287.97;4930516;29;19926;-74
2023/10/28 01:30:56;;;;;;;;;;;;;;;11.20;100.00;98283.16;4927029;29;20289;-74
2023/10/28 01:33:22;;;;;;;;;;;;;;;11.09;100.00;98270.38;4931535;29;19931;-75
2023/10/28 01:35:47;;;;;;;;;;;;;;;11.13;100.00;98260.28;4932736;29;19975;-74
2023/10/28 01:38:13;;;;;;;;;;;;;;;11.09;100.00;98255.34;4931198;29;19954;-74
2023/10/28 01:40:38;;;;;;;;;;;;;;;10.96;100.00;98265.66;4939077;29;19990;-74
2023/10/28 01:43:04;;;;;;;;;;;;;;;10.88;100.00;98270.22;4935288;29;19986;-73
2023/10/28 01:45:30;;;;;;;;;;;;;;;10.83;100.00;98265.47;4932951;29;19923;-74
2023/10/28 01:47:58;;;;;;;;;;;;;;;10.79;100.00;98274.69;4935959;29;19958;-74
2023/10/28 01:50:23;;;;;;;;;;;;;;;10.46;100.00;98274.09;4933250;29;19930;-74
2023/10/28 01:52:49;;;;;;;;;;;;;;;10.60;100.00;98264.63;4939584;29;19970;-74
2023/10/28 01:55:14;;;;;;;;;;;;;;;10.65;100.00;98268.38;4935390;29;19930;-74
2023/10/28 01:57:40;;;;;;;;;;;;;;;10.71;100.00;98274.78;4934395;29;19923;-74
2023/10/28 02:00:07;;;;;;;;;;;;;;;10.73;100.00;98271.94;4937853;29;19970;-74
2023/10/28 02:02:35;;;;;;;;;;;;;;;10.68;100.00;98285.66;4933757;29;19923;-74
2023/10/28 02:05:01;;;;;;;;;;;;;;;10.80;100.00;98271.06;4914401;29;20257;-74
2023/10/28 02:07:27;;;;;;;;;;;;;;;10.84;100.00;98285.56;4930796;29;19953;-74
2023/10/28 02:09:52;;;;;;;;;;;;;;;10.78;100.00;98278.34;4927371;29;20391;-74
2023/10/28 02:12:18;;;;;;;;;;;;;;;10.66;100.00;98285.03;4928906;29;19961;-75
2023/10/28 02:14:46;;;;;;;;;;;;;;;10.55;100.00;98283.59;4931459;29;20288;-74
2023/10/28 02:17:12;;;;;;;;;;;;;;;10.65;100.00;98293.94;4928969;29;19930;-75
2023/10/28 02:19:38;;;;;;;;;;;;;;;10.74;100.00;98289.41;4896812;29;20074;-74
2023/10/28 02:22:03;;;;;;;;;;;;;;;10.79;100.00;98287.91;4925620;29;19974;-73
2023/10/28 02:24:29;;;;;;;;;;;;;;;10.81;100.00;98283.28;4931504;29;19927;-74
2023/10/28 02:26:55;;;;;;;;;;;;;;;10.85;100.00;98289.84;4929027;29;19922;-74
2023/10/28 02:29:21;;;;;;;;;;;;;;;10.86;100.00;98285.38;4928854;29;19923;-73
2023/10/28 02:31:48;;;;;;;;;;;;;;;10.81;100.00;98288.56;4922938;29;19966;-74
2023/10/28 02:34:14;;;;;;;;;;;;;;;10.77;100.00;98292.53;4928909;29;20311;-73
2023/10/28 02:36:39;;;;;;;;;;;;;;;10.76;100.00;98301.44;4928856;29;19976;-73
2023/10/28 02:39:05;;;;;;;;;;;;;;;10.69;100.00;98289.94;4928583;29;19922;-74
2023/10/28 02:41:31;;;;;;;;;;;;;;;10.53;100.00;98300.59;4928609;29;19923;-74
2023/10/28 02:43:57;;;;;;;;;;;;;;;10.34;100.00;98301.84;4928080;29;19923;-74
2023/10/28 02:46:24;;;;;;;;;;;;;;;10.02;100.00;98315.91;4930200;29;19939;-74
2023/10/28 02:48:51;;;;;;;;;;;;;;;9.65;100.00;98310.41;4928425;29;19959;-73
2023/10/28 02:51:17;;;;;;;;;;;;;;;9.60;100.00;98315.38;4928206;29;19999;-74
2023/10/28 02:53:43;;;;;;;;;;;;;;;9.38;100.00;98317.66;4930506;29;19923;-74
2023/10/28 02:56:08;;;;;;;;;;;;;;;9.22;100.00;98316.84;4894685;29;20009;-73
2023/10/28 02:58:34;;;;;;;;;;;;;;;9.32;100.00;98306.97;4930161;29;19922;-71
2023/10/28 03:01:10;;;;;;;;;;;;;;;9.43;100.00;98314.53;4929270;29;19923;-73
2023/10/28 03:03:35;;;;;;;;;;;;;;;9.54;100.00;98308.13;4929313;29;19926;-74
2023/10/28 03:06:02;;;;;;;;;;;;;;;9.67;100.00;98318.94;4929478;29;20470;-74
2023/10/28 03:08:28;;;;;;;;;;;;;;;9.76;100.00;98324.06;4910773;29;19923;-74
2023/10/28 03:10:54;;;;;;;;;;;;;;;9.82;100.00;98323.38;4931278;29;19946;-73
2023/10/28 03:13:19;;;;;;;;;;;;;;;9.87;100.00;98314.97;4927781;29;19930;-74
2023/10/28 03:15:46;;;;;;;;;;;;;;;9.95;100.00;98322.88;4931192;29;20029;-74
2023/10/28 03:18:12;;;;;;;;;;;;;;;9.97;100.00;98336.69;4927558;29;20027;-74
2023/10/28 03:20:38;;;;;;;;;;;;;;;9.89;100.00;98339.34;4930079;29;19928;-73
2023/10/28 03:23:04;;;;;;;;;;;;;;;9.88;100.00;98332.44;4927357;29;19923;-74
2023/10/28 03:25:31;;;;;;;;;;;;;;;9.88;100.00;98336.88;4930748;29;19929;-73
2023/10/28 03:27:57;;;;;;;;;;;;;;;9.91;100.00;98332.09;4925192;29;20580;-74
2023/10/28 03:30:22;;;;;;;;;;;;;;;9.83;100.00;98340.03;4928752;29;19929;-75
2023/10/28 03:32:48;;;;;;;;;;;;;;;9.75;100.00;98342.66;4910778;29;19927;-74
2023/10/28 03:35:14;;;;;;;;;;;;;;;9.85;100.00;98348.56;4917215;29;19927;-75
2023/10/28 03:37:42;;;;;;;;;;;;;;;9.83;100.00;98340.03;4928513;29;19929;-74
2023/10/28 03:40:08;;;;;;;;;;;;;;;9.77;100.00;98335.41;4929548;29;19923;-74
2023/10/28 03:42:33;;;;;;;;;;;;;;;9.77;100.00;98327.53;4910016;29;19926;-75
2023/10/28 03:44:59;;;;;;;;;;;;;;;9.73;100.00;98336.72;4932648;29;19929;-74
2023/10/28 03:47:25;;;;;;;;;;;;;;;9.68;100.00;98336.41;4928845;29;20026;-75
2023/10/28 03:49:50;;;;;;;;;;;;;;;9.54;100.00;98332.66;4930500;29;19958;-74
2023/10/28 03:52:16;;;;;;;;;;;;;;;9.32;100.00;98342.00;4927220;29;19927;-75
2023/10/28 03:54:41;;;;;;;;;;;;;;;9.41;100.00;98346.31;4932409;29;20015;-75
2023/10/28 03:57:07;;;;;;;;;;;;;;;9.35;100.00;98354.88;4920728;29;19961;-75
2023/10/28 03:59:32;;;;;;;;;;;;;;;9.31;100.00;98356.16;4912038;29;19923;-75
2023/10/28 04:01:58;;;;;;;;;;;;;;;9.26;100.00;98353.19;4929721;29;19927;-73
2023/10/28 04:04:24;;;;;;;;;;;;;;;9.22;100.00;98353.69;4927462;29;19923;-75
2023/10/28 04:06:50;;;;;;;;;;;;;;;9.17;100.00;98359.47;4930206;29;19930;-74
2023/10/28 04:09:16;;;;;;;;;;;;;;;9.24;100.00;98349.94;4929487;29;19953;-75
2023/10/28 04:11:41;;;;;;;;;;;;;;;9.20;100.00;98358.28;4926028;29;19938;-75
2023/10/28 04:14:07;;;;;;;;;;;;;;;9.18;100.00;98355.84;4930487;29;19930;-75
2023/10/28 04:16:32;;;;;;;;;;;;;;;9.21;100.00;98366.03;4928668;29;19929;-74
2023/10/28 04:18:58;;;;;;;;;;;;;;;9.25;100.00;98367.34;4928051;29;19927;-75
2023/10/28 04:21:23;;;;;;;;;;;;;;;9.25;100.00;98372.59;4930082;29;19930;-75
2023/10/28 04:23:50;;;;;;;;;;;;;;;9.29;100.00;98360.78;4927235;29;19923;-75
2023/10/28 04:26:15;;;;;;;;;;;;;;;9.26;100.00;98358.47;4925044;29;20376;-76
2023/10/28 04:28:41;;;;;;;;;;;;;;;9.27;100.00;98357.47;4927248;29;19929;-75
2023/10/28 04:31:06;;;;;;;;;;;;;;;9.20;100.00;98353.84;4928343;29;19923;-74
2023/10/28 04:33:31;;;;;;;;;;;;;;;9.07;100.00;98358.78;4927411;29;19934;-74
2023/10/28 04:35:57;;;;;;;;;;;;;;;9.03;100.00;98362.72;4927064;29;19923;-74
2023/10/28 04:38:22;;;;;;;;;;;;;;;8.95;100.00;98362.72;4925247;29;19971;-74
2023/10/28 04:40:51;;;;;;;;;;;;;;;8.97;100.00;98368.63;4928518;29;19938;-75
2023/10/28 04:43:19;;;;;;;;;;;;;;;8.96;100.00;98365.16;4926828;29;20298;-75
2023/10/28 04:45:44;;;;;;;;;;;;;;;8.95;100.00;98370.59;4927421;29;19969;-76
2023/10/28 04:48:10;;;;;;;;;;;;;;;8.80;100.00;98361.69;4928820;29;19923;-74
2023/10/28 04:50:36;;;;;;;;;;;;;;;8.74;100.00;98362.31;4928060;29;19982;-75
2023/10/28 04:53:02;;;;;;;;;;;;;;;8.71;100.00;98371.38;4928476;29;19926;-75
2023/10/28 04:55:27;;;;;;;;;;;;;;;8.54;100.00;98375.72;4927939;29;19927;-75
2023/10/28 04:57:53;;;;;;;;;;;;;;;8.56;100.00;98384.28;4927837;29;19923;-75
2023/10/28 05:00:19;;;;;;;;;;;;;;;8.62;100.00;98388.91;4925650;29;19927;-75
2023/10/28 05:02:45;;;;;;;;;;;;;;;8.49;100.00;98391.16;4928868;29;19922;-75
2023/10/28 05:05:10;;;;;;;;;;;;;;;8.35;100.00;98397.00;4925727;29;20283;-75
2023/10/28 05:07:37;;;;;;;;;;;;;;;8.19;100.00;98400.31;4925062;29;20009;-75
2023/10/28 05:10:03;;;;;;;;;;;;;;;8.19;100.00;98395.06;4924329;29;20058;-75
2023/10/28 05:12:28;;;;;;;;;;;;;;;8.30;100.00;98394.03;4928100;29;19958;-73
2023/10/28 05:14:54;;;;;;;;;;;;;;;8.33;100.00;98385.81;4925251;29;19925;-74
2023/10/28 05:17:20;;;;;;;;;;;;;;;8.44;100.00;98382.91;4929122;29;19922;-74
2023/10/28 05:19:46;;;;;;;;;;;;;;;8.57;100.00;98377.22;4925142;29;20036;-74
2023/10/28 05:22:12;;;;;;;;;;;;;;;8.58;100.00;98381.50;4928109;29;19927;-74
2023/10/28 05:24:37;;;;;;;;;;;;;;;8.54;100.00;98394.13;4926533;29;19922;-75
2023/10/28 05:27:03;;;;;;;;;;;;;;;8.52;100.00;98390.84;4925544;29;19974;-74
2023/10/28 05:29:29;;;;;;;;;;;;;;;8.53;100.00;98381.97;4925285;29;19930;-75
2023/10/28 05:31:56;;;;;;;;;;;;;;;8.59;100.00;98381.34;4924215;29;20026;-74
2023/10/28 05:34:23;;;;;;;;;;;;;;;8.38;100.00;98380.09;4914195;29;19927;-75
2023/10/28 05:36:49;;;;;;;;;;;;;;;8.30;100.00;98386.16;4883065;29;20289;-75
2023/10/28 05:39:15;;;;;;;;;;;;;;;8.30;100.00;98388.78;4913195;29;19986;-74
2023/10/28 05:41:40;;;;;;;;;;;;;;;8.29;100.00;98384.47;4913521;29;19923;-74
2023/10/28 05:44:06;;;;;;;;;;;;;;;8.30;100.00;98391.41;4911146;29;20013;-74
2023/10/28 05:46:32;;;;;;;;;;;;;;;8.14;100.00;98401.78;4911725;29;20073;-75
2023/10/28 05:48:58;;;;;;;;;;;;;;;8.20;100.00;98401.16;4913476;29;19930;-75
2023/10/28 05:51:23;;;;;;;;;;;;;;;8.15;100.00;98413.94;4914061;29;19923;-76
2023/10/28 05:53:49;;;;;;;;;;;;;;;8.00;100.00;98410.25;4914230;29;20372;-76
2023/10/28 05:56:16;;;;;;;;;;;;;;;7.98;100.00;98423.53;4913024;29;19923;-74
2023/10/28 05:58:41;;;;;;;;;;;;;;;8.06;100.00;98430.66;4913522;29;20299;-74
2023/10/28 06:01:07;;;;;;;;;;;;;;;7.92;100.00;98441.69;4913247;29;20014;-74
2023/10/28 06:03:32;;;;;;;;;;;;;;;7.86;100.00;98444.94;4912364;29;19923;-74
2023/10/28 06:05:58;;;;;;;;;;;;;;;7.78;100.00;98446.50;4910834;29;19955;-76
2023/10/28 06:08:23;;;;;;;;;;;;;;;7.89;100.00;98455.16;4913619;29;19943;-76
2023/10/28 06:10:49;;;;;;;;;;;;;;;7.89;100.00;98447.28;4913232;29;19985;-76
2023/10/28 06:13:15;;;;;;;;;;;;;;;7.94;100.00;98443.22;4912748;29;19923;-74
2023/10/28 06:15:41;;;;;;;;;;;;;;;8.03;100.00;98450.16;4912972;29;20273;-74
2023/10/28 06:18:07;;;;;;;;;;;;;;;8.10;100.00;98463.50;4913251;29;19923;-76
2023/10/28 06:20:36;;;;;;;;;;;;;;;8.15;100.00;98461.22;4915690;29;20017;-75
2023/10/28 06:23:04;;;;;;;;;;;;;;;8.22;100.00;98462.28;4912724;29;20023;-75
2023/10/28 06:25:29;;;;;;;;;;;;;;;8.30;100.00;98465.00;4916785;29;20289;-75
2023/10/28 06:27:55;;;;;;;;;;;;;;;8.37;100.00;98460.75;4916125;29;19923;-75
2023/10/28 06:30:20;;;;;;;;;;;;;;;8.45;100.00;98470.50;4916751;29;20018;-74
2023/10/28 06:32:46;;;;;;;;;;;;;;;8.48;100.00;98476.25;4924703;29;19927;-75
2023/10/28 06:35:13;;;;;;;;;;;;;;;8.44;100.00;98488.06;4930801;29;19995;-76
2023/10/28 06:37:39;;;;;;;;;;;;;;;8.31;100.00;98498.16;4929395;29;20314;-75
2023/10/28 06:40:06;;;;;;;;;;;;;;;8.22;100.00;98494.63;4930136;29;19923;-74
2023/10/28 06:42:32;;;;;;;;;;;;;;;8.26;100.00;98500.41;4924159;29;20280;-75
2023/10/28 06:44:57;;;;;;;;;;;;;;;8.29;100.00;98510.63;4931075;29;19933;-75
2023/10/28 06:47:23;;;;;;;;;;;;;;;8.20;100.00;98511.53;4927534;29;20372;-76
2023/10/28 06:49:48;;;;;;;;;;;;;;;8.36;100.00;98510.88;4931319;29;19927;-76
2023/10/28 06:52:14;;;;;;;;;;;;;;;8.39;100.00;98526.31;4928499;29;19951;-76
2023/10/28 06:54:40;;;;;;;;;;;;;;;8.39;100.00;98537.66;4933448;29;19923;-76
2023/10/28 06:57:06;;;;;;;;;;;;;;;8.36;100.00;98535.34;4925734;29;19923;-75
2023/10/28 06:59:34;;;;;;;;;;;;;;;8.24;100.00;98533.91;4929177;29;20390;-76
2023/10/28 07:02:00;;;;;;;;;;;;;;;8.19;100.00;98544.03;4928749;29;20053;-76
2023/10/28 07:04:25;;;;;;;;;;;;;;;8.16;100.00;98531.22;4930861;29;19929;-75
2023/10/28 07:06:51;;;;;;;;;;;;;;;8.31;100.00;98529.69;4928517;29;19927;-76
2023/10/28 07:09:18;;;;;;;;;;;;;;;8.39;100.00;98531.56;4931891;29;19966;-76
2023/10/28 07:11:43;;;;;;;;;;;;;;;8.41;100.00;98530.47;4928495;29;19970;-75
2023/10/28 07:14:09;;;;;;;;;;;;;;;8.56;100.00;98538.59;4929604;29;19962;-76
2023/10/28 07:16:34;;;;;;;;;;;;;;;8.72;100.00;98530.00;4927275;29;19927;-76
2023/10/28 07:19:00;;;;;;;;;;;;;;;8.71;100.00;98530.97;4929588;29;19927;-74
2023/10/28 07:21:25;;;;;;;;;;;;;;;8.87;100.00;98541.56;4926600;29;19962;-75
2023/10/28 07:23:51;;;;;;;;;;;;;;;8.95;100.00;98545.06;4931114;29;19927;-75
2023/10/28 07:26:16;;;;;;;;;;;;;;;9.11;100.00;98554.84;4927620;29;20000;-74
2023/10/28 07:28:42;;;;;;;;;;;;;;;9.19;100.00;98557.50;4929744;29;20022;-75
2023/10/28 07:31:07;;;;;;;;;;;;;;;9.31;100.00;98556.22;4925612;29;19978;-75
2023/10/28 07:33:33;;;;;;;;;;;;;;;9.40;100.00;98552.66;4930748;29;19923;-76
2023/10/28 07:36:02;;;;;;;;;;;;;;;9.47;100.00;98559.94;4926990;29;19928;-75
2023/10/28 07:38:28;;;;;;;;;;;;;;;9.57;100.00;98565.88;4930687;29;19933;-76
2023/10/28 07:40:54;;;;;;;;;;;;;;;9.63;100.00;98562.59;4926888;29;19923;-75
2023/10/28 07:43:19;;;;;;;;;;;;;;;9.69;100.00;98560.16;4930581;29;19977;-76
2023/10/28 07:45:48;;;;;;;;;;;;;;;9.83;100.00;98572.72;4926869;29;20375;-74
2023/10/28 07:48:14;;;;;;;;;;;;;;;9.95;100.00;98575.84;4929779;29;20057;-76
2023/10/28 07:50:40;;;;;;;;;;;;;;;10.04;100.00;98585.41;4926848;29;20018;-76
2023/10/28 07:53:06;;;;;;;;;;;;;;;10.11;100.00;98594.31;4929715;29;19923;-75
2023/10/28 07:55:31;;;;;;;;;;;;;;;10.18;100.00;98598.00;4929267;29;19930;-76
2023/10/28 07:57:57;;;;;;;;;;;;;;;10.29;100.00;98598.66;4933170;29;19927;-75
2023/10/28 08:00:23;;;;;;;;;;;;;;;10.38;100.00;98598.47;4926659;29;19958;-74
2023/10/28 08:02:49;;;;;;;;;;;;;;;10.44;100.00;98591.72;4930162;29;19927;-74
2023/10/28 08:05:15;;;;;;;;;;;;;;;10.54;100.00;98582.63;4926336;29;19930;-74
2023/10/28 08:07:40;;;;;;;;;;;;;;;10.62;100.00;98600.28;4929440;29;19929;-74
2023/10/28 08:10:06;;;;;;;;;;;;;;;10.69;100.00;98596.00;4926426;29;20014;-74
2023/10/28 08:12:32;;;;;;;;;;;;;;;10.75;100.00;98600.59;4929367;29;19970;-75
2023/10/28 08:15:05;;;;;;;;;;;;;;;10.78;100.00;98610.81;4926575;29;19979;-76
2023/10/28 08:17:31;;;;;;;;;;;;;;;10.84;100.00;98615.44;4930753;29;19972;-75
2023/10/28 08:19:57;;;;;;;;;;;;;;;10.84;100.00;98619.91;4925738;29;20416;-75
2023/10/28 08:22:24;;;;;;;;;;;;;;;10.89;100.00;98621.06;4929899;29;20375;-75
2023/10/28 08:24:49;;;;;;;;;;;;;;;10.88;100.00;98616.75;4926873;29;20299;-74
2023/10/28 08:27:15;;;;;;;;;;;;;;;11.01;100.00;98621.53;4929382;29;20009;-74
2023/10/28 08:29:43;;;;;;;;;;;;;;;11.17;100.00;98625.94;4927536;29;19958;-74
2023/10/28 08:32:09;;;;;;;;;;;;;;;11.29;100.00;98621.94;4925732;29;20005;-75
2023/10/28 08:34:34;;;;;;;;;;;;;;;11.42;100.00;98619.59;4926102;29;20423;-75
2023/10/28 08:37:00;;;;;;;;;;;;;;;11.52;100.00;98629.94;4910322;29;19949;-74
2023/10/28 08:39:26;;;;;;;;;;;;;;;11.61;100.00;98624.44;4926238;29;19923;-74
2023/10/28 08:41:51;;;;;;;;;;;;;;;11.67;100.00;98629.06;4929760;29;19954;-75
2023/10/28 08:44:27;;;;;;;;;;;;;;;11.74;100.00;98632.69;4928956;29;19922;-75
2023/10/28 08:46:53;;;;;;;;;;;;;;;11.81;100.00;98625.72;4929632;29;19922;-75
2023/10/28 08:49:19;;;;;;;;;;;;;;;11.90;100.00;98627.31;4927495;29;19950;-75
2023/10/28 08:51:47;;;;;;;;;;;;;;;11.97;100.00;98635.38;4929355;29;19923;-75
2023/10/28 08:54:14;;;;;;;;;;;;;;;12.06;100.00;98638.81;4928340;29;19934;-75
2023/10/28 08:56:43;;;;;;;;;;;;;;;12.15;100.00;98637.75;4927785;29;19981;-75
2023/10/28 08:59:09;;;;;;;;;;;;;;;12.22;100.00;98636.06;4927404;29;20296;-75
2023/10/28 09:01:35;;;;;;;;;;;;;;;12.31;100.00;98637.66;4928436;29;19923;-73
2023/10/28 09:04:01;;;;;;;;;;;;;;;12.38;100.00;98643.88;4926322;29;19923;-74
2023/10/28 09:06:28;;;;;;;;;;;;;;;12.45;100.00;98638.72;4929217;29;19922;-75
2023/10/28 09:08:57;;;;;;;;;;;;;;;12.53;100.00;98647.41;4923957;29;19919;-75
2023/10/28 09:11:23;;;;;;;;;;;;;;;12.61;100.00;98650.00;4929539;29;19923;-74
2023/10/28 09:13:48;;;;;;;;;;;;;;;12.69;100.00;98657.06;4925774;29;20017;-75
2023/10/28 09:16:14;;;;;;;;;;;;;;;12.77;100.00;98658.81;4927068;29;20360;-75
2023/10/28 09:18:40;;;;;;;;;;;;;;;12.87;100.00;98659.38;4930951;29;19934;-75
2023/10/28 09:21:08;;;;;;;;;;;;;;;12.96;100.00;98653.03;4929858;29;19974;-75
2023/10/28 09:23:33;;;;;;;;;;;;;;;13.03;100.00;98660.06;4929965;29;20296;-75
2023/10/28 09:25:59;;;;;;;;;;;;;;;13.11;100.00;98667.09;4932201;29;19923;-75
2023/10/28 09:28:25;;;;;;;;;;;;;;;13.17;100.00;98660.28;4914347;29;19922;-75
2023/10/28 09:30:51;;;;;;;;;;;;;;;13.25;100.00;98663.69;4933750;29;20288;-75
2023/10/28 09:33:17;;;;;;;;;;;;;;;13.32;100.00;98667.25;4928415;29;19926;-75
2023/10/28 09:35:44;;;;;;;;;;;;;;;13.41;100.00;98655.56;4912344;29;19958;-75
2023/10/28 09:38:11;;;;;;;;;;;;;;;13.52;100.00;98664.88;4932095;29;19923;-75
2023/10/28 09:40:37;;;;;;;;;;;;;;;13.61;100.00;98660.31;4931445;29;19923;-75
2023/10/28 09:43:03;;;;;;;;;;;;;;;13.69;100.00;98654.91;4929730;29;19923;-75
2023/10/28 09:45:28;;;;;;;;;;;;;;;13.79;100.00;98668.69;4932577;29;19926;-75
2023/10/28 09:47:56;;;;;;;;;;;;;;;13.88;100.00;98665.78;4930021;29;19962;-75
2023/10/28 09:50:22;;;;;;;;;;;;;;;14.00;100.00;98670.59;4928184;29;20724;-75
2023/10/28 09:52:57;;;;;;;;;;;;;;;14.09;100.00;98667.66;4928068;29;19930;-75
2023/10/28 09:55:25;;;;;;;;;;;;;;;14.20;100.00;98669.81;4933800;29;19930;-75
2023/10/28 09:57:55;;;;;;;;;;;;;;;14.31;100.00;98665.88;4934925;29;20666;-75
2023/10/28 10:00:23;;;;;;;;;;;;;;;14.41;100.00;98665.59;4934624;29;19924;-76
2023/10/28 10:02:49;;;;;;;;;;;;;;;14.55;100.00;98662.84;4933253;29;19934;-75
2023/10/28 10:05:20;;;;;;;;;;;;;;;14.66;100.00;98658.91;4933330;29;19927;-75
2023/10/28 10:07:45;;;;;;;;;;;;;;;14.76;100.00;98659.38;4935970;29;19948;-74
2023/10/28 10:10:20;;;;;;;;;;;;;;;14.88;100.00;98672.97;4932423;29;19974;-74
2023/10/28 10:12:48;;;;;;;;;;;;;;;15.01;100.00;98679.22;4934908;29;20296;-75
2023/10/28 10:15:14;;;;;;;;;;;;;;;15.10;100.00;98672.75;4932351;29;20414;-74
2023/10/28 10:17:58;;;;;;;;;;;;;;;15.22;100.00;98669.56;4935823;29;19966;-74
2023/10/28 10:20:25;;;;;;;;;;;;;;;15.35;100.00;98675.78;4931651;29;19918;-75
2023/10/28 10:22:58;;;;;;;;;;;;;;;15.45;100.00;98681.56;4930983;29;20303;-74
2023/10/28 10:25:36;;;;;;;;;;;;;;;15.54;100.00;98669.00;4926135;29;19981;-75
2023/10/28 10:28:20;;;;;;;;;;;;;;;15.63;100.00;98678.44;4930202;29;19923;-75
2023/10/28 10:30:45;;;;;;;;;;;;;;;15.67;100.00;98674.38;4917432;29;19923;-75
2023/10/28 10:33:11;;;;;;;;;;;;;;;15.70;100.00;98663.34;4928974;29;19930;-74
2023/10/28 10:35:37;;;;;;;;;;;;;;;15.72;100.00;98663.97;4928338;29;19923;-74
2023/10/28 10:38:06;;;;;;;;;;;;;;;15.74;100.00;98664.59;4912035;29;19929;-74
2023/10/28 10:40:52;;;;;;;;;;;;;;;15.77;100.00;98658.88;4930655;29;19923;-74
2023/10/28 10:43:18;;;;;;;;;;;;;;;15.81;100.00;98654.81;4930106;29;19926;-74
2023/10/28 10:45:44;;;;;;;;;;;;;;;15.87;100.00;98656.66;4929057;29;19931;-74
2023/10/28 10:48:10;;;;;;;;;;;;;;;15.92;100.00;98662.22;4930267;29;20311;-74
2023/10/28 10:50:36;;;;;;;;;;;;;;;15.96;100.00;98652.00;4927879;29;19924;-74
2023/10/28 10:53:03;;;;;;;;;;;;;;;16.04;100.00;98658.97;4913599;29;19929;-75
2023/10/28 10:55:29;;;;;;;;;;;;;;;16.13;100.00;98657.81;4931425;29;19927;-75
2023/10/28 10:57:55;;;;;;;;;;;;;;;16.21;100.00;98655.75;4929903;29;19923;-75
2023/10/28 11:00:22;;;;;;;;;;;;;;;16.31;100.00;98655.41;4927870;29;19929;-75
2023/10/28 11:02:48;;;;;;;;;;;;;;;16.43;100.00;98652.97;4931546;29;19923;-75
2023/10/28 11:05:13;;;;;;;;;;;;;;;16.53;100.00;98662.19;4927739;29;19931;-75
2023/10/28 11:07:41;;;;;;;;;;;;;;;16.67;100.00;98653.22;4929131;29;20013;-74
2023/10/28 11:10:08;;;;;;;;;;;;;;;16.87;100.00;98655.09;4909966;29;19923;-75
2023/10/28 11:12:37;;;;;;;;;;;;;;;17.00;100.00;98650.59;4929223;29;19922;-75
2023/10/28 11:15:03;;;;;;;;;;;;;;;17.17;100.00;98654.47;4925484;29;20022;-74
2023/10/28 11:17:29;;;;;;;;;;;;;;;17.27;100.00;98653.22;4931059;29;20392;-74
2023/10/28 11:19:56;;;;;;;;;;;;;;;17.44;100.00;98649.06;4927092;29;19923;-75
2023/10/28 11:22:22;;;;;;;;;;;;;;;17.61;100.00;98652.16;4931031;29;19977;-75
2023/10/28 11:24:53;;;;;;;;;;;;;;;17.83;100.00;98650.84;4927393;29;19923;-76
2023/10/28 11:27:19;;;;;;;;;;;;;;;18.02;100.00;98654.50;4929479;29;19978;-76
2023/10/28 11:29:45;;;;;;;;;;;;;;;18.11;100.00;98663.88;4926803;29;19919;-76
2023/10/28 11:32:12;;;;;;;;;;;;;;;18.18;100.00;98665.50;4912478;29;19927;-76
2023/10/28 11:34:39;;;;;;;;;;;;;;;18.17;100.00;98666.53;4927095;29;19923;-76
2023/10/28 11:37:09;;;;;;;;;;;;;;;18.11;100.00;98670.03;4929098;29;19958;-75
2023/10/28 11:39:35;;;;;;;;;;;;;;;18.09;100.00;98666.75;4928445;29;19942;-76
2023/10/28 11:42:13;;;;;;;;;;;;;;;18.12;100.00;98660.19;4911841;29;20343;-76
2023/10/28 11:44:46;;;;;;;;;;;;;;;18.18;100.00;98659.34;4928156;29;20017;-75
2023/10/28 11:47:12;;;;;;;;;;;;;;;18.18;100.00;98662.00;4927975;29;19927;-75
2023/10/28 11:49:38;;;;;;;;;;;;;;;18.18;100.00;98660.16;4929386;29;19931;-74
2023/10/28 11:52:04;;;;;;;;;;;;;;;18.25;100.00;98663.63;4925053;29;19971;-76
2023/10/28 11:54:29;;;;;;;;;;;;;;;18.33;100.00;98660.69;4930724;29;19922;-75
2023/10/28 11:56:55;;;;;;;;;;;;;;;18.36;100.00;98656.78;4922398;29;19950;-76
2023/10/28 11:59:20;;;;;;;;;;;;;;;18.47;100.00;98658.75;4929226;29;19922;-76
2023/10/28 12:01:46;;;;;;;;;;;;;;;18.58;100.00;98654.59;4927475;29;19923;-76
2023/10/28 12:04:11;;;;;;;;;;;;;;;18.68;100.00;98654.94;4929328;29;19927;-75
2023/10/28 12:06:37;;;;;;;;;;;;;;;18.72;100.00;98646.31;4929097;29;19922;-76
2023/10/28 12:09:11;;;;;;;;;;;;;;;18.74;100.00;98638.03;4927886;29;19922;-74
2023/10/28 12:11:36;;;;;;;;;;;;;;;18.79;100.00;98644.38;4928269;29;19923;-76
2023/10/28 12:14:01;;;;;;;;;;;;;;;18.81;100.00;98638.81;4927102;29;19930;-76
2023/10/28 12:16:29;;;;;;;;;;;;;;;18.78;100.00;98640.09;4926098;29;19931;-76
2023/10/28 12:18:54;;;;;;;;;;;;;;;18.76;100.00;98635.97;4929379;29;20430;-76
2023/10/28 12:21:20;;;;;;;;;;;;;;;18.78;100.00;98633.91;4926499;29;19959;-75
2023/10/28 12:23:45;;;;;;;;;;;;;;;18.81;100.00;98633.47;4929132;29;19923;-76
2023/10/28 12:26:11;;;;;;;;;;;;;;;18.82;100.00;98635.13;4927335;29;19966;-75
2023/10/28 12:28:36;;;;;;;;;;;;;;;18.90;100.00;98645.53;4926152;29;19969;-75
2023/10/28 12:31:05;;;;;;;;;;;;;;;19.05;100.00;98643.34;4909190;29;19923;-74
2023/10/28 12:33:31;;;;;;;;;;;;;;;19.21;100.00;98640.09;4927605;29;19922;-75
2023/10/28 12:35:57;;;;;;;;;;;;;;;19.30;100.00;98642.50;4925722;29;19923;-74